Time;durP1;ratioP1;P1;durP2;ratioP2;P2;SDS_P1;SDS_P2;PMS_P1;PMS_P2;Temp;Humidity;BMP_temperature;BMP_pressure;BME280_temperature;BME280_humidity;BME280_pressure;Samples;Min_cycle;Max_cycle;Signal;HPM_P1;HPM_P2
2023/04/01 00:03:25;;;;;;;13.50;10.20;;;;;;;9.56;82.12;98589.05;107354;1254;1065845;-74
2023/04/01 00:08:18;;;;;;;13.40;9.70;;;;;;;9.54;82.12;98586.31;107268;1254;1018080;-73
2023/04/01 00:13:11;;;;;;;11.60;10.40;;;;;;;9.54;82.19;98580.08;107326;1254;1016407;-74
2023/04/01 00:18:04;;;;;;;12.00;10.60;;;;;;;9.53;82.40;98573.86;107267;1252;1018030;-74
2023/04/01 00:22:57;;;;;;;14.00;10.60;;;;;;;9.51;82.40;98565.76;107426;1253;1016422;-74
2023/04/01 00:27:54;;;;;;;15.90;10.60;;;;;;;9.49;82.30;98570.45;107338;1253;1018080;-74
2023/04/01 00:32:52;;;;;;;12.60;11.00;;;;;;;9.45;82.15;98565.15;107176;1253;1071019;-74
2023/04/01 00:37:45;;;;;;;17.50;12.10;;;;;;;9.35;82.00;98555.07;107292;1253;1053827;-74
2023/04/01 00:42:38;;;;;;;13.10;11.00;;;;;;;9.25;82.41;98559.52;107485;1253;1016487;-74
2023/04/01 00:47:31;;;;;;;15.20;11.90;;;;;;;9.20;82.63;98552.84;107329;1253;1015896;-74
2023/04/01 00:52:26;;;;;;;18.90;12.30;;;;;;;9.17;82.60;98554.43;107310;1253;1018081;-73
2023/04/01 00:57:26;;;;;;;15.80;12.50;;;;;;;9.14;82.50;98556.88;107318;1253;1069673;-74
2023/04/01 01:02:20;;;;;;;13.50;10.80;;;;;;;9.15;82.85;98557.73;107277;1253;1050571;-74
2023/04/01 01:07:16;;;;;;;14.50;12.50;;;;;;;9.16;82.82;98560.31;107245;1254;1016480;-74
2023/04/01 01:12:19;;;;;;;18.60;13.20;;;;;;;9.17;82.80;98566.88;107276;1253;1072863;-74
2023/04/01 01:17:18;;;;;;;17.20;13.20;;;;;;;9.20;83.02;98566.51;107311;1253;1066517;-74
2023/04/01 01:22:49;;;;;;;17.70;14.20;;;;;;;9.20;83.09;98563.39;107364;1253;1073925;-74
2023/04/01 01:27:48;;;;;;;20.60;14.10;;;;;;;9.17;82.95;98560.31;107273;1253;1051058;-74
2023/04/01 01:33:02;;;;;;;17.60;13.40;;;;;;;9.12;82.84;98564.34;107222;1253;1058730;-74
2023/04/01 01:38:02;;;;;;;16.20;12.50;;;;;;;9.03;83.08;98566.69;107320;1253;1075408;-74
2023/04/01 01:43:00;;;;;;;13.00;11.20;;;;;;;8.95;83.04;98562.27;107273;1253;1064895;-74
2023/04/01 01:47:57;;;;;;;12.80;11.50;;;;;;;8.86;82.82;98561.85;107366;1253;1071103;-74
2023/04/01 01:52:50;;;;;;;19.90;11.70;;;;;;;8.79;82.86;98560.03;107337;1257;1053804;-74
2023/04/01 01:57:46;;;;;;;14.90;11.50;;;;;;;8.74;82.94;98553.70;107291;1253;1016285;-74
2023/04/01 02:02:47;;;;;;;13.20;11.50;;;;;;;8.69;82.94;98554.43;107244;1253;1073954;-74
2023/04/01 02:07:44;;;;;;;15.60;12.50;;;;;;;8.66;82.98;98552.22;107272;1254;1066646;-74
2023/04/01 02:12:38;;;;;;;14.80;11.10;;;;;;;8.65;83.10;98542.21;107264;1255;1070476;-74
2023/04/01 02:17:33;;;;;;;15.70;12.20;;;;;;;8.65;82.99;98537.20;107286;1253;1050939;-74
2023/04/01 02:22:41;;;;;;;14.20;11.40;;;;;;;8.64;83.06;98533.08;107332;1253;1059577;-74
2023/04/01 02:27:35;;;;;;;12.80;10.50;;;;;;;8.62;83.21;98527.05;107290;1257;1072382;-73
2023/04/01 02:32:30;;;;;;;14.90;12.00;;;;;;;8.58;83.03;98523.29;107195;1254;1016407;-73
2023/04/01 02:37:24;;;;;;;13.80;11.90;;;;;;;8.51;82.96;98518.34;107247;1253;1070645;-74
2023/04/01 02:42:18;;;;;;;15.10;11.70;;;;;;;8.48;82.76;98522.87;107402;1253;1016474;-74
2023/04/01 02:47:10;;;;;;;12.30;10.70;;;;;;;8.49;82.99;98524.58;107338;1253;1016152;-74
2023/04/01 02:52:04;;;;;;;12.70;11.10;;;;;;;8.51;83.04;98529.91;107309;1253;1016299;-74
2023/04/01 02:56:56;;;;;;;14.70;11.30;;;;;;;8.53;83.09;98525.41;107265;1253;1016590;-74
2023/04/01 03:01:49;;;;;;;11.60;10.40;;;;;;;8.56;83.18;98525.38;107316;1253;1016388;-74
2023/04/01 03:06:42;;;;;;;14.40;11.30;;;;;;;8.58;83.24;98526.39;107254;1256;1016348;-74
2023/04/01 03:11:35;;;;;;;13.40;11.50;;;;;;;8.52;82.84;98529.05;107335;1253;1016473;-73
2023/04/01 03:16:28;;;;;;;14.80;12.20;;;;;;;8.45;83.09;98528.77;107229;1253;1016317;-74
2023/04/01 03:21:23;;;;;;;13.10;11.20;;;;;;;8.37;82.92;98534.15;107292;1253;1016291;-74
2023/04/01 03:26:17;;;;;;;13.90;12.10;;;;;;;8.31;83.03;98541.11;107244;1253;1073562;-74
2023/04/01 03:31:11;;;;;;;17.90;13.40;;;;;;;8.31;83.29;98548.70;107319;1254;1016618;-73
2023/04/01 03:36:07;;;;;;;15.90;11.90;;;;;;;8.34;83.56;98550.92;107272;1254;1058622;-74
2023/04/01 03:41:02;;;;;;;18.00;13.10;;;;;;;8.37;83.54;98553.31;107327;1253;1016611;-74
2023/04/01 03:45:57;;;;;;;17.10;13.30;;;;;;;8.42;83.84;98557.96;107353;1256;1065687;-74
2023/04/01 03:50:50;;;;;;;15.20;13.10;;;;;;;8.47;83.98;98560.35;107351;1253;1070839;-74
2023/04/01 03:55:44;;;;;;;19.40;13.60;;;;;;;8.49;83.82;98568.63;107278;1256;1015985;-74
2023/04/01 04:00:37;;;;;;;15.70;12.70;;;;;;;8.47;83.58;98571.91;107263;1253;1018924;-73
2023/04/01 04:05:31;;;;;;;16.90;13.50;;;;;;;8.41;83.60;98582.80;107502;1253;1016399;-74
2023/04/01 04:10:25;;;;;;;15.00;13.00;;;;;;;8.41;83.72;98579.01;107320;1252;1017042;-74
2023/04/01 04:15:18;;;;;;;14.80;13.00;;;;;;;8.43;83.81;98584.73;107324;1252;1016026;-74
2023/04/01 04:20:12;;;;;;;14.90;12.90;;;;;;;8.42;83.84;98588.50;107309;1253;1015971;-74
2023/04/01 04:25:06;;;;;;;14.70;13.10;;;;;;;8.43;83.79;98595.77;107335;1254;1016477;-74
2023/04/01 04:29:59;;;;;;;17.00;14.80;;;;;;;8.44;83.85;98593.86;107247;1253;1016439;-74
2023/04/01 04:34:52;;;;;;;18.90;14.90;;;;;;;8.46;84.06;98602.83;107288;1253;1016443;-73
2023/04/01 04:39:45;;;;;;;17.60;14.80;;;;;;;8.49;84.00;98597.09;107283;1253;1016123;-74
2023/04/01 04:44:38;;;;;;;18.30;14.80;;;;;;;8.54;84.08;98601.89;107255;1253;1016402;-74
2023/04/01 04:49:32;;;;;;;18.50;15.40;;;;;;;8.61;84.01;98605.46;107315;1253;1016334;-74
2023/04/01 04:54:28;;;;;;;22.60;14.50;;;;;;;8.68;83.98;98607.30;107333;1253;1073323;-74
2023/04/01 04:59:23;;;;;;;16.70;14.20;;;;;;;8.74;83.79;98610.17;107237;1253;1065893;-74
2023/04/01 05:04:51;;;;;;;19.70;14.80;;;;;;;8.87;83.67;98607.29;107000;1253;1071333;-74
2023/04/01 05:09:45;;;;;;;18.70;14.80;;;;;;;8.99;83.67;98609.06;107298;1253;1016309;-74
2023/04/01 05:14:38;;;;;;;17.90;14.60;;;;;;;9.08;83.61;98609.67;107407;1253;1058693;-73
2023/04/01 05:19:34;;;;;;;16.50;14.80;;;;;;;9.11;83.40;98614.98;107295;1254;1073082;-74
2023/04/01 05:24:27;;;;;;;18.60;15.10;;;;;;;9.16;83.57;98621.16;107323;1253;1016374;-74
2023/04/01 05:29:20;;;;;;;20.50;16.90;;;;;;;9.27;83.52;98620.52;107211;1253;1016085;-75
2023/04/01 05:34:16;;;;;;;19.00;15.50;;;;;;;9.38;83.19;98621.27;107297;1253;1051311;-74
2023/04/01 05:39:09;;;;;;;18.60;15.20;;;;;;;9.44;83.31;98620.66;107398;1254;1016408;-74
2023/04/01 05:44:03;;;;;;;18.50;16.50;;;;;;;9.50;83.23;98623.70;107402;1254;1016061;-74
2023/04/01 05:49:04;;;;;;;17.70;15.70;;;;;;;9.63;83.21;98625.63;107366;1253;1067800;-74
2023/04/01 05:53:58;;;;;;;19.50;16.80;;;;;;;9.77;82.77;98631.85;107232;1253;1016012;-74
2023/04/01 05:58:54;;;;;;;16.80;15.10;;;;;;;9.96;82.73;98630.38;107227;1256;1018099;-73
2023/04/01 06:03:47;;;;;;;15.60;14.00;;;;;;;10.15;82.19;98632.02;107308;1253;1058543;-74
2023/04/01 06:08:40;;;;;;;19.20;16.00;;;;;;;10.27;81.79;98626.63;107287;1253;1016611;-73
2023/04/01 06:13:59;;;;;;;16.60;14.20;;;;;;;10.25;82.00;98633.59;107271;1253;1016438;-74
2023/04/01 06:19:11;;;;;;;17.50;15.40;;;;;;;10.15;82.11;98638.77;107260;1256;1070694;-74
2023/04/01 06:24:20;;;;;;;15.20;13.30;;;;;;;10.08;82.40;98637.98;107239;1253;1051312;-73
2023/04/01 06:29:48;;;;;;;18.20;14.00;;;;;;;10.05;82.53;98641.85;107415;1253;1058304;-74
2023/04/01 06:34:56;;;;;;;16.00;13.00;;;;;;;10.13;82.49;98639.84;107302;1253;1074942;-74
2023/04/01 06:40:34;;;;;;;20.60;14.40;;;;;;;10.16;82.37;98633.91;107353;1254;1065821;-74
2023/04/01 06:45:53;;;;;;;17.40;14.00;;;;;;;10.06;82.63;98632.14;106667;1261;1071096;-74
2023/04/01 06:51:32;;;;;;;20.20;16.10;;;;;;;10.12;82.73;98634.14;106693;1262;1050770;-74
2023/04/01 06:56:49;;;;;;;17.30;14.30;;;;;;;10.15;82.91;98638.08;106664;1261;1058347;-74
2023/04/01 07:01:53;;;;;;;20.20;17.10;;;;;;;10.15;82.79;98636.34;106658;1262;1072966;-74
2023/04/01 07:06:58;;;;;;;17.10;15.40;;;;;;;10.13;82.58;98637.41;106659;1262;1065058;-74
2023/04/01 07:11:52;;;;;;;17.20;14.90;;;;;;;10.09;82.55;98637.13;106645;1261;1072037;-74
2023/04/01 07:17:15;;;;;;;20.40;15.60;;;;;;;10.14;82.52;98637.58;106563;1261;1054463;-73
2023/04/01 07:22:30;;;;;;;20.50;16.50;;;;;;;10.28;82.50;98632.02;107153;1253;1057943;-74
2023/04/01 07:28:22;;;;;;;18.90;16.30;;;;;;;10.62;82.09;98629.59;107004;1254;1073497;-74
2023/04/01 07:33:42;;;;;;;17.70;15.80;;;;;;;10.95;81.53;98631.63;107313;1257;1064873;-74
2023/04/01 07:38:59;;;;;;;17.90;15.20;;;;;;;11.18;80.90;98631.02;107334;1257;1071060;-74
2023/04/01 07:44:35;;;;;;;17.10;15.30;;;;;;;11.04;81.03;98626.96;107431;1254;1051389;-73
2023/04/01 07:49:37;;;;;;;21.70;17.70;;;;;;;10.89;81.40;98625.30;107307;1253;1058845;-74
2023/04/01 07:54:56;;;;;;;20.20;18.20;;;;;;;10.70;81.18;98629.80;107258;1253;1073635;-73
2023/04/01 08:00:01;;;;;;;20.80;18.70;;;;;;;10.50;81.19;98635.84;107233;1253;1065622;-74
2023/04/01 08:05:27;;;;;;;18.70;16.60;;;;;;;10.37;81.49;98642.27;107617;1254;1070329;-73
2023/04/01 08:10:37;;;;;;;19.70;17.70;;;;;;;10.40;81.51;98642.08;108209;1253;1051204;-73
2023/04/01 08:15:52;;;;;;;19.40;17.40;;;;;;;10.89;81.11;98642.29;108419;1254;1059172;-74
2023/04/01 08:21:05;;;;;;;19.10;17.20;;;;;;;11.51;80.26;98643.23;107236;1254;1072288;-73
2023/04/01 08:26:04;;;;;;;;;;;;;;;11.61;80.02;98647.72;107339;1253;1064679;-73
2023/04/01 08:31:31;;;;;;;19.70;17.80;;;;;;;11.59;79.71;98651.58;107169;1254;1070474;-73
2023/04/01 08:36:32;;;;;;;18.10;16.20;;;;;;;11.43;79.54;98654.48;106618;1263;1051339;-73
2023/04/01 08:41:52;;;;;;;17.10;15.30;;;;;;;11.34;79.55;98656.57;106677;1261;1059234;-73
2023/04/01 08:47:25;;;;;;;16.40;14.70;;;;;;;11.43;79.30;98659.54;106612;1261;1072475;-73
2023/04/01 08:52:36;;;;;;;16.60;14.90;;;;;;;11.70;78.92;98664.87;106796;1262;1064650;-74
2023/04/01 08:57:39;;;;;;;17.60;15.50;;;;;;;11.79;78.61;98667.99;106752;1265;1072342;-73
2023/04/01 09:03:35;;;;;;;18.60;16.70;;;;;;;11.72;78.77;98664.83;106656;1261;1049959;-73
2023/04/01 09:08:46;;;;;;;16.80;15.10;;;;;;;11.56;78.66;98667.23;106610;1261;1057806;-73
2023/04/01 09:14:06;;;;;;;16.80;15.20;;;;;;;11.41;78.88;98667.19;107138;1254;1072550;-73
2023/04/01 09:19:22;;;;;;;16.80;15.20;;;;;;;11.36;78.93;98668.84;107268;1253;1066050;-73
2023/04/01 09:24:35;;;;;;;16.70;15.10;;;;;;;11.43;79.20;98670.95;106667;1261;1070389;-73
2023/04/01 09:29:37;;;;;;;15.40;13.90;;;;;;;11.36;79.00;98674.57;106626;1261;1051491;-73
2023/04/01 09:34:54;;;;;;;15.50;13.90;;;;;;;11.17;79.14;98677.17;106645;1263;1058622;-72
2023/04/01 09:40:00;;;;;;;14.60;13.00;;;;;;;10.94;79.10;98682.24;106689;1263;1072735;-72
2023/04/01 09:45:23;;;;;;;13.30;11.80;;;;;;;10.80;79.16;98679.02;106692;1260;1066341;-72
2023/04/01 09:51:13;;;;;;;11.80;10.60;;;;;;;11.08;79.03;98673.70;106651;1263;1071959;-73
2023/04/01 09:56:34;;;;;;;8.60;7.60;;;;;;;11.28;78.32;98675.59;106336;1269;1051574;-72
2023/04/01 10:01:36;;;;;;;7.00;6.30;;;;;;;11.21;78.19;98677.80;106457;1262;1058945;-72
2023/04/01 10:07:21;;;;;;;6.00;5.30;;;;;;;11.13;78.12;98691.14;106524;1263;1072862;-72
2023/04/01 10:12:40;;;;;;;6.80;6.20;;;;;;;10.96;77.87;98696.08;106199;1268;1065273;-72
2023/04/01 10:17:58;;;;;;;6.10;5.50;;;;;;;10.92;77.87;98701.70;106212;1267;1070912;-72
2023/04/01 10:23:15;;;;;;;7.00;6.30;;;;;;;10.92;78.32;98710.89;106292;1269;1051525;-73
2023/04/01 10:28:17;;;;;;;8.00;7.20;;;;;;;10.84;78.40;98717.08;106640;1265;1059185;-74
2023/04/01 10:33:51;;;;;;;8.70;7.60;;;;;;;10.92;78.55;98712.80;106420;1261;1073131;-73
2023/04/01 10:39:02;;;;;;;10.20;9.10;;;;;;;11.01;78.60;98712.12;106510;1262;1065239;-73
2023/04/01 10:44:25;;;;;;;9.20;8.40;;;;;;;11.01;79.09;98717.48;107138;1255;1070491;-73
2023/04/01 10:49:49;;;;;;;8.00;7.30;;;;;;;11.05;78.81;98716.56;107045;1254;1050842;-73
2023/04/01 10:55:19;;;;;;;8.80;7.80;;;;;;;11.08;79.09;98718.07;107221;1254;1058147;-73
2023/04/01 11:00:35;;;;;;;7.30;6.60;;;;;;;11.10;78.82;98715.27;106987;1257;1073560;-72
2023/04/01 11:06:17;;;;;;;6.20;5.60;;;;;;;11.11;78.54;98720.98;107049;1258;1065693;-72
2023/04/01 11:12:01;;;;;;;4.80;4.20;;;;;;;11.07;78.08;98721.39;107091;1254;1073257;-72
2023/04/01 11:16:58;;;;;;;3.20;2.90;;;;;;;11.22;78.30;98720.60;106516;1261;1051074;-73
2023/04/01 11:22:16;;;;;;;3.40;3.10;;;;;;;11.68;77.25;98717.50;106526;1265;1061698;-73
2023/04/01 11:27:32;;;;;;;4.30;3.30;;;;;;;12.57;76.58;98707.30;106607;1261;1075720;-73
2023/04/01 11:32:36;;;;;;;3.50;3.20;;;;;;;14.14;74.08;98707.72;106599;1265;1065370;-73
2023/04/01 11:37:55;;;;;;;2.90;2.70;;;;;;;15.15;72.70;98696.54;106596;1265;1070703;-73
2023/04/01 11:43:27;;;;;;;2.60;2.40;;;;;;;15.41;71.11;98697.42;106582;1261;1051375;-72
2023/04/01 11:49:22;;;;;;;3.40;2.90;;;;;;;15.42;70.34;98694.59;106415;1268;1058931;-72
2023/04/01 11:54:38;;;;;;;2.30;2.10;;;;;;;15.32;70.36;98695.48;107005;1254;1072961;-72
2023/04/01 11:59:52;;;;;;;2.00;1.80;;;;;;;14.91;69.84;98701.89;107109;1254;1067598;-73
2023/04/01 12:04:59;;;;;;;2.50;2.30;;;;;;;14.39;69.87;98705.77;107055;1256;1071279;-72
2023/04/01 12:09:54;;;;;;;3.20;3.00;;;;;;;13.89;70.09;98711.77;107078;1254;1051451;-73
2023/04/01 12:15:16;;;;;;;3.20;3.00;;;;;;;13.54;70.16;98711.00;107143;1256;1058583;-72
2023/04/01 12:20:13;;;;;;;3.10;2.80;;;;;;;13.60;71.01;98714.31;107107;1254;1074926;-73
2023/04/01 12:25:20;;;;;;;3.70;3.30;;;;;;;14.19;70.54;98718.05;107071;1254;1066071;-72
2023/04/01 12:30:42;;;;;;;3.80;3.00;;;;;;;14.43;70.66;98715.94;107050;1254;1070761;-72
2023/04/01 12:35:53;;;;;;;7.50;3.50;;;;;;;14.37;70.19;98714.89;107081;1255;1054266;-72
2023/04/01 12:41:22;;;;;;;3.10;2.90;;;;;;;14.17;70.39;98718.99;107042;1254;1058095;-73
2023/04/01 12:46:42;;;;;;;3.00;2.60;;;;;;;14.06;70.23;98716.16;106993;1254;1075012;-72
2023/04/01 12:51:54;;;;;;;4.20;3.70;;;;;;;13.85;70.03;98719.91;107009;1254;1065186;-73
2023/04/01 12:57:10;;;;;;;4.30;3.40;;;;;;;13.69;70.01;98720.70;107097;1254;1070750;-72
2023/04/01 13:02:24;;;;;;;3.60;3.30;;;;;;;13.63;70.35;98722.42;107037;1254;1051078;-73
2023/04/01 13:07:41;;;;;;;5.20;4.80;;;;;;;13.58;69.83;98724.48;107108;1257;1058987;-72
2023/04/01 13:12:48;;;;;;;4.60;4.20;;;;;;;13.58;70.72;98730.75;107117;1253;1074188;-72
2023/04/01 13:18:08;;;;;;;5.10;4.70;;;;;;;13.94;71.00;98739.84;107222;1254;1067829;-73
2023/04/01 13:23:10;;;;;;;5.40;5.00;;;;;;;14.25;70.25;98737.58;107119;1254;1073663;-72
2023/04/01 13:28:20;;;;;;;4.50;4.10;;;;;;;14.10;70.00;98740.81;107092;1255;1051063;-72
2023/04/01 13:33:29;;;;;;;4.00;3.70;;;;;;;13.96;70.07;98741.52;107164;1254;1058908;-72
2023/04/01 13:38:41;;;;;;;5.10;4.60;;;;;;;13.72;69.96;98742.39;107168;1254;1073730;-72
2023/04/01 13:43:40;;;;;;;5.70;4.60;;;;;;;13.57;70.13;98747.29;107085;1254;1065955;-74
2023/04/01 13:48:46;;;;;;;5.20;4.60;;;;;;;13.55;70.33;98748.75;107034;1254;1071033;-72
2023/04/01 13:53:45;;;;;;;4.80;4.30;;;;;;;13.56;70.44;98757.27;107017;1254;1051367;-73
2023/04/01 13:58:51;;;;;;;5.40;4.40;;;;;;;13.50;70.77;98757.59;107090;1254;1058326;-73
2023/04/01 14:04:21;;;;;;;5.00;4.50;;;;;;;13.51;70.88;98762.60;107070;1254;1073388;-73
2023/04/01 14:09:31;;;;;;;2.70;2.50;;;;;;;13.29;70.52;98764.54;106998;1254;1067612;-73
2023/04/01 14:15:08;;;;;;;4.40;3.20;;;;;;;13.06;70.43;98765.60;107018;1253;1073038;-73
2023/04/01 14:20:26;;;;;;;5.10;4.70;;;;;;;13.10;70.24;98769.70;107175;1254;1051749;-73
2023/04/01 14:25:41;;;;;;;2.90;2.60;;;;;;;13.20;69.87;98770.50;107272;1253;1061520;-73
2023/04/01 14:30:43;;;;;;;5.10;4.70;;;;;;;12.99;69.83;98779.20;107248;1254;1072284;-72
2023/04/01 14:35:43;;;;;;;3.30;3.00;;;;;;;12.77;70.35;98782.13;107008;1253;1065325;-72
2023/04/01 14:40:50;;;;;;;7.60;5.10;;;;;;;12.70;70.59;98788.89;107427;1254;1070332;-72
2023/04/01 14:46:06;;;;;;;3.00;2.40;;;;;;;12.68;70.95;98795.89;107399;1254;1051434;-73
2023/04/01 14:51:10;;;;;;;2.50;1.80;;;;;;;12.59;70.86;98799.37;107036;1254;1059222;-72
2023/04/01 14:56:04;;;;;;;8.20;4.60;;;;;;;12.37;71.08;98802.80;107323;1253;1076543;-72
2023/04/01 15:01:25;;;;;;;3.00;2.70;;;;;;;12.21;71.70;98806.77;107050;1257;1016220;-74
2023/04/01 15:06:56;;;;;;;9.40;6.10;;;;;;;12.06;71.97;98815.77;107176;1257;1071870;-73
2023/04/01 15:12:12;;;;;;;7.40;4.50;;;;;;;11.89;72.61;98828.91;107128;1253;1050544;-73
2023/04/01 15:17:29;;;;;;;6.10;4.60;;;;;;;11.74;73.15;98830.55;107092;1254;1061606;-73
2023/04/01 15:22:53;;;;;;;14.30;8.90;;;;;;;11.63;73.57;98836.81;107087;1254;1072860;-74
2023/04/01 15:27:56;;;;;;;12.20;8.90;;;;;;;11.44;73.87;98849.45;107090;1253;1064794;-73
2023/04/01 15:33:10;;;;;;;19.00;11.60;;;;;;;11.24;73.94;98866.77;107162;1254;1071036;-73
2023/04/01 15:38:25;;;;;;;7.10;5.60;;;;;;;10.97;74.07;98871.68;107174;1256;1051214;-72
2023/04/01 15:43:27;;;;;;;26.60;12.90;;;;;;;10.79;74.54;98881.80;107309;1254;1058017;-72
2023/04/01 15:48:57;;;;;;;6.00;4.90;;;;;;;10.64;74.72;98888.05;107248;1253;1075423;-72
2023/04/01 15:54:03;;;;;;;9.30;7.70;;;;;;;10.52;75.10;98896.17;107265;1253;1065834;-72
2023/04/01 15:59:15;;;;;;;21.20;17.70;;;;;;;10.44;75.57;98903.02;107210;1254;1072038;-72
2023/04/01 16:04:37;;;;;;;18.90;14.80;;;;;;;10.36;75.72;98905.20;107252;1256;1050666;-72
2023/04/01 16:09:57;;;;;;;9.20;8.00;;;;;;;10.25;76.30;98918.61;107198;1254;1058726;-72
2023/04/01 16:15:13;;;;;;;16.40;12.60;;;;;;;10.13;76.58;98933.27;107280;1253;1072215;-73
2023/04/01 16:20:18;;;;;;;9.10;6.60;;;;;;;10.06;77.04;98941.84;107214;1253;1065786;-72
2023/04/01 16:25:29;;;;;;;11.40;7.70;;;;;;;9.95;77.00;98954.56;107295;1256;1071025;-72
2023/04/01 16:30:38;;;;;;;15.60;12.10;;;;;;;9.85;77.09;98959.65;107223;1256;1051415;-72
2023/04/01 16:35:43;;;;;;;5.70;5.20;;;;;;;9.76;76.86;98969.94;107293;1254;1057673;-72
2023/04/01 16:41:13;;;;;;;8.40;6.40;;;;;;;9.69;76.78;98978.46;107255;1254;1072451;-72
2023/04/01 16:46:13;;;;;;;2.50;1.70;;;;;;;9.58;76.35;98989.45;107274;1253;1067461;-72
2023/04/01 16:51:15;;;;;;;4.00;2.90;;;;;;;9.49;76.30;98995.38;107244;1253;1070635;-72
2023/04/01 16:56:15;;;;;;;4.90;3.50;;;;;;;9.43;76.25;99007.69;107343;1254;1051205;-72
2023/04/01 17:01:37;;;;;;;3.30;2.60;;;;;;;9.39;76.42;99013.77;107225;1253;1058833;-72
2023/04/01 17:06:54;;;;;;;2.70;2.30;;;;;;;9.39;76.46;99023.63;107201;1254;1072528;-72
2023/04/01 17:12:09;;;;;;;15.70;12.30;;;;;;;9.37;76.80;99028.98;107245;1254;1069597;-72
2023/04/01 17:17:26;;;;;;;12.50;8.10;;;;;;;9.34;76.77;99040.60;107284;1252;1071166;-72
2023/04/01 17:22:28;;;;;;;8.10;6.60;;;;;;;9.29;77.13;99050.48;107224;1256;1050860;-72
2023/04/01 17:27:26;;;;;;;8.90;6.10;;;;;;;9.23;77.07;99061.92;107233;1254;1058662;-72
2023/04/01 17:32:41;;;;;;;4.60;3.70;;;;;;;9.17;77.22;99066.27;107108;1253;1073309;-72
2023/04/01 17:37:55;;;;;;;6.30;5.20;;;;;;;9.12;77.37;99071.80;107091;1253;1066157;-71
2023/04/01 17:43:33;;;;;;;7.10;5.20;;;;;;;9.05;77.60;99086.17;107058;1254;1071785;-72
2023/04/01 17:48:59;;;;;;;5.70;5.10;;;;;;;9.00;77.65;99097.25;107124;1253;1051489;-73
2023/04/01 17:54:19;;;;;;;4.40;3.50;;;;;;;8.95;77.99;99104.34;107079;1253;1061122;-72
2023/04/01 17:59:39;;;;;;;6.50;5.00;;;;;;;8.89;77.90;99117.84;107914;1253;1073019;-72
2023/04/01 18:11:15;;;;;;;22.10;15.10;;;;;;;8.87;78.08;99135.80;107150;1253;1074362;-73
2023/04/01 18:16:26;;;;;;;7.10;4.80;;;;;;;8.84;78.18;99137.88;107197;1253;1049879;-73
2023/04/01 18:21:25;;;;;;;12.70;8.90;;;;;;;8.83;78.13;99147.39;107319;1253;1058984;-73
2023/04/01 18:26:34;;;;;;;7.00;4.80;;;;;;;8.80;77.98;99147.39;107311;1253;1072580;-72
2023/04/01 18:31:38;;;;;;;6.60;4.20;;;;;;;8.76;78.03;99155.00;107338;1253;1065292;-72
2023/04/01 18:36:54;;;;;;;5.90;4.10;;;;;;;8.74;77.97;99157.07;107128;1253;1070685;-72
2023/04/01 18:42:10;;;;;;;8.10;4.70;;;;;;;8.73;78.01;99168.13;107284;1254;1050491;-71
2023/04/01 18:47:24;;;;;;;5.80;4.50;;;;;;;8.73;77.92;99170.55;107157;1253;1061197;-72
2023/04/01 18:52:44;;;;;;;4.00;3.40;;;;;;;8.74;78.16;99173.30;107113;1257;1071225;-72
2023/04/01 18:57:56;;;;;;;3.60;3.20;;;;;;;8.78;78.19;99182.13;107316;1253;1066554;-73
2023/04/01 19:03:08;;;;;;;11.30;8.70;;;;;;;8.83;78.17;99183.15;107211;1253;1071895;-73
2023/04/01 19:08:36;;;;;;;19.30;10.10;;;;;;;8.85;78.17;99194.04;107172;1253;1051281;-73
2023/04/01 19:13:47;;;;;;;15.20;8.30;;;;;;;8.84;78.18;99201.48;106739;1261;1059105;-72
2023/04/01 19:18:59;;;;;;;9.30;6.60;;;;;;;8.80;78.05;99209.94;106646;1262;1074392;-73
2023/04/01 19:23:58;;;;;;;11.00;7.50;;;;;;;8.76;77.91;99218.05;106657;1262;1068417;-73
2023/04/01 19:28:54;;;;;;;11.90;8.20;;;;;;;8.73;78.02;99222.21;106667;1260;1070274;-73
2023/04/01 19:34:09;;;;;;;8.70;6.30;;;;;;;8.67;78.06;99230.84;106702;1260;1050876;-73
2023/04/01 19:39:28;;;;;;;7.70;6.70;;;;;;;8.64;78.03;99231.70;106639;1261;1059374;-73
2023/04/01 19:44:51;;;;;;;7.50;6.80;;;;;;;8.60;78.06;99241.02;106593;1260;1072551;-73
2023/04/01 19:49:54;;;;;;;5.60;5.10;;;;;;;8.57;77.84;99246.54;107216;1253;1065328;-72
2023/04/01 19:54:56;;;;;;;8.00;7.20;;;;;;;8.54;77.76;99261.39;107130;1253;1070338;-73
2023/04/01 20:00:03;;;;;;;7.40;5.70;;;;;;;8.49;77.75;99265.70;107184;1253;1053433;-73
2023/04/01 20:05:05;;;;;;;7.60;5.90;;;;;;;8.46;77.89;99272.59;108262;1253;1057367;-72
2023/04/01 20:10:09;;;;;;;10.90;9.90;;;;;;;8.45;77.78;99276.73;107196;1253;1072316;-72
2023/04/01 20:15:22;;;;;;;5.40;4.80;;;;;;;8.43;77.73;99282.27;107311;1253;1065435;-72
2023/04/01 20:20:27;;;;;;;6.30;4.70;;;;;;;8.40;77.72;99281.87;107296;1253;1070347;-73
2023/04/01 20:25:27;;;;;;;6.70;5.30;;;;;;;8.39;77.56;99291.02;107285;1253;1051197;-72
2023/04/01 20:30:53;;;;;;;5.20;4.60;;;;;;;8.38;77.78;99292.74;107195;1253;1057110;-73
2023/04/01 20:36:15;;;;;;;8.80;7.90;;;;;;;8.36;77.81;99301.20;107228;1253;1075175;-73
2023/04/01 20:41:26;;;;;;;7.60;6.80;;;;;;;8.38;77.99;99311.73;107215;1253;1065494;-72
2023/04/01 20:46:46;;;;;;;7.60;6.80;;;;;;;8.36;78.03;99319.16;107477;1253;1073221;-72
2023/04/01 20:51:45;;;;;;;14.50;10.90;;;;;;;8.33;78.06;99324.66;107125;1253;1050753;-72
2023/04/01 20:56:54;;;;;;;14.60;10.00;;;;;;;8.31;78.05;99329.33;107202;1253;1058999;-72
2023/04/01 21:02:02;;;;;;;16.10;11.00;;;;;;;8.29;77.98;99335.36;107227;1253;1073005;-73
2023/04/01 21:07:22;;;;;;;12.20;7.60;;;;;;;8.25;78.03;99337.58;107140;1253;1065341;-72
2023/04/01 21:12:20;;;;;;;14.80;9.80;;;;;;;8.20;78.09;99345.34;107144;1253;1070659;-72
2023/04/01 21:17:35;;;;;;;9.80;7.20;;;;;;;8.15;77.84;99351.36;107258;1253;1051236;-73
2023/04/01 21:22:28;;;;;;;11.10;7.20;;;;;;;8.11;77.88;99363.05;107256;1253;1060499;-73
2023/04/01 21:27:22;;;;;;;6.10;4.80;;;;;;;8.07;77.97;99366.48;107155;1253;1016408;-73
2023/04/01 21:32:41;;;;;;;10.80;7.50;;;;;;;8.04;77.59;99378.21;107245;1253;1016350;-72
2023/04/01 21:37:50;;;;;;;5.80;4.40;;;;;;;7.99;77.39;99383.36;107293;1253;1070840;-72
2023/04/01 21:42:55;;;;;;;10.20;5.70;;;;;;;7.95;77.20;99390.06;107178;1253;1052191;-73
2023/04/01 21:48:41;;;;;;;14.70;8.50;;;;;;;7.90;77.11;99393.48;107303;1253;1058178;-72
2023/04/01 21:54:15;;;;;;;11.70;7.30;;;;;;;7.85;76.99;99398.09;106614;1262;1073531;-72
2023/04/01 21:59:49;;;;;;;9.20;6.00;;;;;;;7.86;77.04;99402.42;106612;1261;1068261;-73
2023/04/01 22:04:52;;;;;;;7.30;4.90;;;;;;;7.86;76.91;99409.84;106447;1267;1071121;-72
2023/04/01 22:10:24;;;;;;;7.60;4.70;;;;;;;7.84;76.87;99415.17;106418;1268;1051267;-72
2023/04/01 22:15:49;;;;;;;6.90;4.40;;;;;;;7.83;76.73;99417.93;106386;1267;1059439;-73
2023/04/01 22:20:57;;;;;;;11.70;6.60;;;;;;;7.81;76.62;99420.50;106351;1267;1072804;-72
2023/04/01 22:26:09;;;;;;;7.90;5.10;;;;;;;7.80;76.69;99424.12;106583;1261;1064842;-72
2023/04/01 22:31:06;;;;;;;7.30;4.90;;;;;;;7.77;76.59;99432.55;106975;1262;1071346;-72
2023/04/01 22:36:06;;;;;;;9.30;7.00;;;;;;;7.71;76.55;99435.61;106643;1262;1055238;-73
2023/04/01 22:41:22;;;;;;;5.60;4.60;;;;;;;7.65;76.60;99444.00;107211;1253;1058773;-72
2023/04/01 22:46:59;;;;;;;4.80;4.10;;;;;;;7.62;76.55;99447.25;107144;1253;1075298;-73
2023/04/01 22:52:26;;;;;;;5.00;4.10;;;;;;;7.59;76.49;99450.52;107149;1253;1065975;-72
2023/04/01 22:57:37;;;;;;;6.10;4.10;;;;;;;7.53;76.42;99454.43;107171;1254;1070686;-72
2023/04/01 23:02:41;;;;;;;5.70;4.30;;;;;;;7.50;76.39;99463.70;107125;1254;1050662;-73
2023/04/01 23:07:49;;;;;;;6.70;5.00;;;;;;;7.46;76.41;99466.77;107121;1254;1061509;-72
2023/04/01 23:12:43;;;;;;;6.30;4.20;;;;;;;7.39;76.28;99471.72;107163;1253;1075365;-72
2023/04/01 23:18:02;;;;;;;5.30;4.80;;;;;;;7.36;76.50;99476.50;107222;1253;1016407;-72
2023/04/01 23:23:26;;;;;;;6.30;4.70;;;;;;;7.31;76.67;99482.48;107131;1255;1071078;-73
2023/04/01 23:28:26;;;;;;;6.60;5.10;;;;;;;7.33;76.79;99488.55;107373;1253;1051064;-73